sensor_id;sensor_type;location;lat;lon;timestamp;temperature;humidity
46055;DHT22;31788;6.954;-71.872;2023-02-11T00:00:12;25.90;97.20
46055;DHT22;31788;6.954;-71.872;2023-02-11T00:02:38;25.90;97.20
46055;DHT22;31788;6.954;-71.872;2023-02-11T00:05:04;25.90;97.00
46055;DHT22;31788;6.954;-71.872;2023-02-11T00:09:58;25.90;97.00
46055;DHT22;31788;6.954;-71.872;2023-02-11T00:12:27;25.90;97.10
46055;DHT22;31788;6.954;-71.872;2023-02-11T00:14:53;25.90;97.00
46055;DHT22;31788;6.954;-71.872;2023-02-11T00:17:20;25.80;97.00
46055;DHT22;31788;6.954;-71.872;2023-02-11T00:19:49;25.90;97.00
46055;DHT22;31788;6.954;-71.872;2023-02-11T00:22:17;25.80;96.90
46055;DHT22;31788;6.954;-71.872;2023-02-11T00:24:43;25.80;96.70
46055;DHT22;31788;6.954;-71.872;2023-02-11T00:27:10;25.80;96.80
46055;DHT22;31788;6.954;-71.872;2023-02-11T00:29:36;25.80;96.60
46055;DHT22;31788;6.954;-71.872;2023-02-11T00:32:03;25.80;96.80
46055;DHT22;31788;6.954;-71.872;2023-02-11T00:34:30;25.80;96.70
46055;DHT22;31788;6.954;-71.872;2023-02-11T00:36:56;25.80;96.50
46055;DHT22;31788;6.954;-71.872;2023-02-11T00:39:22;25.70;96.50
46055;DHT22;31788;6.954;-71.872;2023-02-11T00:41:48;25.80;96.50
46055;DHT22;31788;6.954;-71.872;2023-02-11T00:44:14;25.80;96.40
46055;DHT22;31788;6.954;-71.872;2023-02-11T00:46:42;25.80;96.50
46055;DHT22;31788;6.954;-71.872;2023-02-11T00:49:08;25.80;96.40
46055;DHT22;31788;6.954;-71.872;2023-02-11T00:51:34;25.80;96.40
46055;DHT22;31788;6.954;-71.872;2023-02-11T00:54:00;25.80;96.30
46055;DHT22;31788;6.954;-71.872;2023-02-11T00:56:26;25.80;96.30
46055;DHT22;31788;6.954;-71.872;2023-02-11T00:58:52;25.70;96.40
46055;DHT22;31788;6.954;-71.872;2023-02-11T01:01:19;25.80;96.20
46055;DHT22;31788;6.954;-71.872;2023-02-11T01:03:45;25.80;96.20
46055;DHT22;31788;6.954;-71.872;2023-02-11T01:06:11;25.70;96.30
46055;DHT22;31788;6.954;-71.872;2023-02-11T01:08:38;25.80;96.60
46055;DHT22;31788;6.954;-71.872;2023-02-11T01:11:10;25.70;96.60
46055;DHT22;31788;6.954;-71.872;2023-02-11T01:13:37;25.70;96.30
46055;DHT22;31788;6.954;-71.872;2023-02-11T01:16:05;25.70;96.30
46055;DHT22;31788;6.954;-71.872;2023-02-11T01:18:32;25.70;96.60
46055;DHT22;31788;6.954;-71.872;2023-02-11T01:20:58;25.70;96.90
46055;DHT22;31788;6.954;-71.872;2023-02-11T01:23:24;25.70;96.60
46055;DHT22;31788;6.954;-71.872;2023-02-11T01:25:50;25.70;96.60
46055;DHT22;31788;6.954;-71.872;2023-02-11T01:28:21;25.70;96.70
46055;DHT22;31788;6.954;-71.872;2023-02-11T01:30:47;25.60;96.90
46055;DHT22;31788;6.954;-71.872;2023-02-11T01:33:14;25.60;97.00
46055;DHT22;31788;6.954;-71.872;2023-02-11T01:35:41;25.70;97.00
46055;DHT22;31788;6.954;-71.872;2023-02-11T01:38:12;25.60;96.90
46055;DHT22;31788;6.954;-71.872;2023-02-11T01:40:39;25.60;97.00
46055;DHT22;31788;6.954;-71.872;2023-02-11T01:43:05;25.60;96.90
46055;DHT22;31788;6.954;-71.872;2023-02-11T01:48:17;25.60;96.90
46055;DHT22;31788;6.954;-71.872;2023-02-11T01:50:45;25.60;96.90
46055;DHT22;31788;6.954;-71.872;2023-02-11T01:53:12;25.60;97.00
46055;DHT22;31788;6.954;-71.872;2023-02-11T01:55:57;25.60;97.20
46055;DHT22;31788;6.954;-71.872;2023-02-11T01:58:42;25.60;97.30
46055;DHT22;31788;6.954;-71.872;2023-02-11T02:01:10;25.50;97.20
46055;DHT22;31788;6.954;-71.872;2023-02-11T02:03:38;25.50;97.40
46055;DHT22;31788;6.954;-71.872;2023-02-11T02:06:09;25.50;97.30
46055;DHT22;31788;6.954;-71.872;2023-02-11T02:08:46;25.50;97.40
46055;DHT22;31788;6.954;-71.872;2023-02-11T02:11:14;25.50;97.60
46055;DHT22;31788;6.954;-71.872;2023-02-11T02:13:41;25.40;97.50
46055;DHT22;31788;6.954;-71.872;2023-02-11T02:16:10;25.40;97.60
46055;DHT22;31788;6.954;-71.872;2023-02-11T02:26:44;25.50;96.80
46055;DHT22;31788;6.954;-71.872;2023-02-11T02:29:36;25.50;97.00
46055;DHT22;31788;6.954;-71.872;2023-02-11T02:37:15;25.60;96.80
46055;DHT22;31788;6.954;-71.872;2023-02-11T02:39:43;25.60;96.70
46055;DHT22;31788;6.954;-71.872;2023-02-11T02:42:11;25.60;96.70
46055;DHT22;31788;6.954;-71.872;2023-02-11T02:44:38;25.50;96.50
46055;DHT22;31788;6.954;-71.872;2023-02-11T02:47:04;25.50;96.50
46055;DHT22;31788;6.954;-71.872;2023-02-11T02:49:33;25.50;96.50
46055;DHT22;31788;6.954;-71.872;2023-02-11T03:00:04;25.60;96.40
46055;DHT22;31788;6.954;-71.872;2023-02-11T03:05:22;25.60;96.40
46055;DHT22;31788;6.954;-71.872;2023-02-11T03:07:55;25.60;96.70
46055;DHT22;31788;6.954;-71.872;2023-02-11T03:12:52;25.50;96.10
46055;DHT22;31788;6.954;-71.872;2023-02-11T03:15:19;25.60;96.10
46055;DHT22;31788;6.954;-71.872;2023-02-11T03:17:47;25.60;96.10
46055;DHT22;31788;6.954;-71.872;2023-02-11T03:20:15;25.60;96.10
46055;DHT22;31788;6.954;-71.872;2023-02-11T03:22:45;25.60;96.10
46055;DHT22;31788;6.954;-71.872;2023-02-11T03:25:12;25.60;96.00
46055;DHT22;31788;6.954;-71.872;2023-02-11T03:32:34;25.60;95.80
46055;DHT22;31788;6.954;-71.872;2023-02-11T03:37:42;25.60;95.90
46055;DHT22;31788;6.954;-71.872;2023-02-11T03:40:19;25.60;96.00
46055;DHT22;31788;6.954;-71.872;2023-02-11T03:45:21;25.60;95.80
46055;DHT22;31788;6.954;-71.872;2023-02-11T03:47:57;25.60;95.80
46055;DHT22;31788;6.954;-71.872;2023-02-11T03:50:25;25.60;96.00
46055;DHT22;31788;6.954;-71.872;2023-02-11T03:52:51;25.60;95.70
46055;DHT22;31788;6.954;-71.872;2023-02-11T03:55:19;25.60;95.90
46055;DHT22;31788;6.954;-71.872;2023-02-11T03:57:46;25.60;95.80
46055;DHT22;31788;6.954;-71.872;2023-02-11T04:00:13;25.60;95.80
46055;DHT22;31788;6.954;-71.872;2023-02-11T04:02:39;25.60;95.80
46055;DHT22;31788;6.954;-71.872;2023-02-11T04:05:06;25.60;95.80
46055;DHT22;31788;6.954;-71.872;2023-02-11T04:07:33;25.60;95.80
46055;DHT22;31788;6.954;-71.872;2023-02-11T04:09:59;25.60;95.60
46055;DHT22;31788;6.954;-71.872;2023-02-11T04:12:25;25.60;95.70
46055;DHT22;31788;6.954;-71.872;2023-02-11T04:14:52;25.60;96.10
46055;DHT22;31788;6.954;-71.872;2023-02-11T04:17:18;25.60;95.90
46055;DHT22;31788;6.954;-71.872;2023-02-11T04:19:44;25.60;95.60
46055;DHT22;31788;6.954;-71.872;2023-02-11T04:22:10;25.60;95.60
46055;DHT22;31788;6.954;-71.872;2023-02-11T04:24:36;25.60;95.60
46055;DHT22;31788;6.954;-71.872;2023-02-11T04:27:02;25.60;95.60
46055;DHT22;31788;6.954;-71.872;2023-02-11T04:29:28;25.60;95.80
46055;DHT22;31788;6.954;-71.872;2023-02-11T04:31:55;25.60;95.70
46055;DHT22;31788;6.954;-71.872;2023-02-11T04:34:21;25.60;95.60
46055;DHT22;31788;6.954;-71.872;2023-02-11T04:36:47;25.60;95.60
46055;DHT22;31788;6.954;-71.872;2023-02-11T04:39:14;25.60;95.50
46055;DHT22;31788;6.954;-71.872;2023-02-11T04:41:40;25.70;95.60
46055;DHT22;31788;6.954;-71.872;2023-02-11T04:44:06;25.60;95.40
46055;DHT22;31788;6.954;-71.872;2023-02-11T04:46:32;25.60;95.40
46055;DHT22;31788;6.954;-71.872;2023-02-11T04:48:58;25.60;95.50
46055;DHT22;31788;6.954;-71.872;2023-02-11T04:51:24;25.70;95.50
46055;DHT22;31788;6.954;-71.872;2023-02-11T04:53:50;25.70;95.40
46055;DHT22;31788;6.954;-71.872;2023-02-11T04:56:17;25.70;95.40
46055;DHT22;31788;6.954;-71.872;2023-02-11T04:58:43;25.70;95.30
46055;DHT22;31788;6.954;-71.872;2023-02-11T05:01:11;25.70;95.50
46055;DHT22;31788;6.954;-71.872;2023-02-11T05:03:37;25.70;95.70
46055;DHT22;31788;6.954;-71.872;2023-02-11T05:06:04;25.60;95.30
46055;DHT22;31788;6.954;-71.872;2023-02-11T05:08:30;25.60;95.40
46055;DHT22;31788;6.954;-71.872;2023-02-11T05:10:57;25.60;95.30
46055;DHT22;31788;6.954;-71.872;2023-02-11T05:13:23;25.70;95.50
46055;DHT22;31788;6.954;-71.872;2023-02-11T05:15:49;25.70;95.50
46055;DHT22;31788;6.954;-71.872;2023-02-11T05:18:15;25.60;95.30
46055;DHT22;31788;6.954;-71.872;2023-02-11T05:20:41;25.70;95.30
46055;DHT22;31788;6.954;-71.872;2023-02-11T05:23:08;25.70;95.50
46055;DHT22;31788;6.954;-71.872;2023-02-11T05:25:34;25.60;95.30
46055;DHT22;31788;6.954;-71.872;2023-02-11T05:28:00;25.70;95.50
46055;DHT22;31788;6.954;-71.872;2023-02-11T05:30:27;25.70;95.40
46055;DHT22;31788;6.954;-71.872;2023-02-11T05:32:53;25.70;95.40
46055;DHT22;31788;6.954;-71.872;2023-02-11T05:35:19;25.70;95.30
46055;DHT22;31788;6.954;-71.872;2023-02-11T05:37:45;25.70;95.30
46055;DHT22;31788;6.954;-71.872;2023-02-11T05:40:12;25.70;95.50
46055;DHT22;31788;6.954;-71.872;2023-02-11T05:42:38;25.70;95.30
46055;DHT22;31788;6.954;-71.872;2023-02-11T05:45:04;25.70;95.30
46055;DHT22;31788;6.954;-71.872;2023-02-11T05:47:30;25.70;95.40
46055;DHT22;31788;6.954;-71.872;2023-02-11T05:49:59;25.70;95.50
46055;DHT22;31788;6.954;-71.872;2023-02-11T05:52:25;25.70;95.40
46055;DHT22;31788;6.954;-71.872;2023-02-11T05:54:52;25.70;95.40
46055;DHT22;31788;6.954;-71.872;2023-02-11T05:57:18;25.70;95.40
46055;DHT22;31788;6.954;-71.872;2023-02-11T05:59:44;25.70;95.40
46055;DHT22;31788;6.954;-71.872;2023-02-11T06:02:10;25.70;95.90
46055;DHT22;31788;6.954;-71.872;2023-02-11T06:04:36;25.70;95.40
46055;DHT22;31788;6.954;-71.872;2023-02-11T06:07:02;25.70;95.40
46055;DHT22;31788;6.954;-71.872;2023-02-11T06:09:29;25.70;95.80
46055;DHT22;31788;6.954;-71.872;2023-02-11T06:11:55;25.70;95.50
46055;DHT22;31788;6.954;-71.872;2023-02-11T06:14:21;25.70;95.50
46055;DHT22;31788;6.954;-71.872;2023-02-11T06:16:47;25.70;95.40
46055;DHT22;31788;6.954;-71.872;2023-02-11T06:19:13;25.70;95.40
46055;DHT22;31788;6.954;-71.872;2023-02-11T06:21:40;25.70;95.30
46055;DHT22;31788;6.954;-71.872;2023-02-11T06:24:07;25.70;95.30
46055;DHT22;31788;6.954;-71.872;2023-02-11T06:26:33;25.70;95.30
46055;DHT22;31788;6.954;-71.872;2023-02-11T06:28:59;25.70;95.30
46055;DHT22;31788;6.954;-71.872;2023-02-11T06:31:26;25.70;95.20
46055;DHT22;31788;6.954;-71.872;2023-02-11T06:33:52;25.70;95.30
46055;DHT22;31788;6.954;-71.872;2023-02-11T06:36:20;25.70;95.30
46055;DHT22;31788;6.954;-71.872;2023-02-11T06:38:47;25.70;95.30
46055;DHT22;31788;6.954;-71.872;2023-02-11T06:41:14;25.60;95.10
46055;DHT22;31788;6.954;-71.872;2023-02-11T06:43:41;25.60;95.20
46055;DHT22;31788;6.954;-71.872;2023-02-11T06:46:07;25.70;95.30
46055;DHT22;31788;6.954;-71.872;2023-02-11T06:48:34;25.70;95.40
46055;DHT22;31788;6.954;-71.872;2023-02-11T06:51:04;25.70;95.30
46055;DHT22;31788;6.954;-71.872;2023-02-11T06:53:30;25.70;95.30
46055;DHT22;31788;6.954;-71.872;2023-02-11T06:56:01;25.60;95.30
46055;DHT22;31788;6.954;-71.872;2023-02-11T06:58:27;25.70;95.30
46055;DHT22;31788;6.954;-71.872;2023-02-11T07:00:53;25.60;95.20
46055;DHT22;31788;6.954;-71.872;2023-02-11T07:03:19;25.60;95.30
46055;DHT22;31788;6.954;-71.872;2023-02-11T07:05:45;25.60;95.40
46055;DHT22;31788;6.954;-71.872;2023-02-11T07:08:11;25.60;95.50
46055;DHT22;31788;6.954;-71.872;2023-02-11T07:10:38;25.60;95.60
46055;DHT22;31788;6.954;-71.872;2023-02-11T07:13:04;25.50;95.40
46055;DHT22;31788;6.954;-71.872;2023-02-11T07:15:30;25.50;95.20
46055;DHT22;31788;6.954;-71.872;2023-02-11T07:17:56;25.60;95.50
46055;DHT22;31788;6.954;-71.872;2023-02-11T07:20:22;25.60;95.40
46055;DHT22;31788;6.954;-71.872;2023-02-11T07:22:48;25.60;95.50
46055;DHT22;31788;6.954;-71.872;2023-02-11T07:25:15;25.60;95.30
46055;DHT22;31788;6.954;-71.872;2023-02-11T07:27:41;25.60;95.60
46055;DHT22;31788;6.954;-71.872;2023-02-11T07:30:07;25.60;95.60
46055;DHT22;31788;6.954;-71.872;2023-02-11T07:32:33;25.60;95.50
46055;DHT22;31788;6.954;-71.872;2023-02-11T07:34:59;25.50;95.60
46055;DHT22;31788;6.954;-71.872;2023-02-11T07:37:26;25.60;95.50
46055;DHT22;31788;6.954;-71.872;2023-02-11T07:39:52;25.50;95.70
46055;DHT22;31788;6.954;-71.872;2023-02-11T07:42:18;25.50;95.80
46055;DHT22;31788;6.954;-71.872;2023-02-11T07:44:45;25.50;96.00
46055;DHT22;31788;6.954;-71.872;2023-02-11T07:47:11;25.50;96.10
46055;DHT22;31788;6.954;-71.872;2023-02-11T07:49:37;25.50;95.90
46055;DHT22;31788;6.954;-71.872;2023-02-11T07:52:03;25.50;95.80
46055;DHT22;31788;6.954;-71.872;2023-02-11T07:54:29;25.50;95.70
46055;DHT22;31788;6.954;-71.872;2023-02-11T07:56:55;25.50;95.60
46055;DHT22;31788;6.954;-71.872;2023-02-11T07:59:22;25.50;95.50
46055;DHT22;31788;6.954;-71.872;2023-02-11T08:01:49;25.50;95.40
46055;DHT22;31788;6.954;-71.872;2023-02-11T08:04:16;25.50;95.40
46055;DHT22;31788;6.954;-71.872;2023-02-11T08:06:42;25.60;95.50
46055;DHT22;31788;6.954;-71.872;2023-02-11T08:09:10;25.50;95.70
46055;DHT22;31788;6.954;-71.872;2023-02-11T08:11:36;25.60;95.70
46055;DHT22;31788;6.954;-71.872;2023-02-11T08:14:02;25.50;95.50
46055;DHT22;31788;6.954;-71.872;2023-02-11T08:16:29;25.50;95.60
46055;DHT22;31788;6.954;-71.872;2023-02-11T08:18:57;25.60;95.70
46055;DHT22;31788;6.954;-71.872;2023-02-11T08:21:23;25.60;95.60
46055;DHT22;31788;6.954;-71.872;2023-02-11T08:23:50;25.50;95.50
46055;DHT22;31788;6.954;-71.872;2023-02-11T08:26:18;25.50;95.50
46055;DHT22;31788;6.954;-71.872;2023-02-11T08:28:44;25.50;95.20
46055;DHT22;31788;6.954;-71.872;2023-02-11T08:31:12;25.50;95.20
46055;DHT22;31788;6.954;-71.872;2023-02-11T08:33:38;25.60;95.00
46055;DHT22;31788;6.954;-71.872;2023-02-11T08:36:09;25.50;95.10
46055;DHT22;31788;6.954;-71.872;2023-02-11T08:38:35;25.50;95.50
46055;DHT22;31788;6.954;-71.872;2023-02-11T08:41:01;25.50;95.60
46055;DHT22;31788;6.954;-71.872;2023-02-11T08:43:28;25.60;95.50
46055;DHT22;31788;6.954;-71.872;2023-02-11T08:45:54;25.50;95.50
46055;DHT22;31788;6.954;-71.872;2023-02-11T08:48:20;25.50;95.60
46055;DHT22;31788;6.954;-71.872;2023-02-11T08:50:46;25.50;95.70
46055;DHT22;31788;6.954;-71.872;2023-02-11T08:53:12;25.50;95.90
46055;DHT22;31788;6.954;-71.872;2023-02-11T08:55:38;25.50;95.80
46055;DHT22;31788;6.954;-71.872;2023-02-11T08:58:04;25.40;95.90
46055;DHT22;31788;6.954;-71.872;2023-02-11T09:00:31;25.40;95.70
46055;DHT22;31788;6.954;-71.872;2023-02-11T09:02:57;25.40;95.90
46055;DHT22;31788;6.954;-71.872;2023-02-11T09:05:23;25.40;95.80
46055;DHT22;31788;6.954;-71.872;2023-02-11T09:07:49;25.40;96.00
46055;DHT22;31788;6.954;-71.872;2023-02-11T09:10:15;25.40;96.10
46055;DHT22;31788;6.954;-71.872;2023-02-11T09:12:42;25.30;96.20
46055;DHT22;31788;6.954;-71.872;2023-02-11T09:15:08;25.30;96.30
46055;DHT22;31788;6.954;-71.872;2023-02-11T09:17:34;25.30;96.50
46055;DHT22;31788;6.954;-71.872;2023-02-11T09:20:00;25.20;96.70
46055;DHT22;31788;6.954;-71.872;2023-02-11T09:22:26;25.20;96.70
46055;DHT22;31788;6.954;-71.872;2023-02-11T09:24:52;25.20;96.90
46055;DHT22;31788;6.954;-71.872;2023-02-11T09:27:19;25.10;97.00
46055;DHT22;31788;6.954;-71.872;2023-02-11T09:29:45;25.10;97.10
46055;DHT22;31788;6.954;-71.872;2023-02-11T09:32:11;25.10;97.10
46055;DHT22;31788;6.954;-71.872;2023-02-11T09:34:37;25.10;97.10
46055;DHT22;31788;6.954;-71.872;2023-02-11T09:37:03;25.10;97.20
46055;DHT22;31788;6.954;-71.872;2023-02-11T09:39:29;25.10;97.10
46055;DHT22;31788;6.954;-71.872;2023-02-11T09:42:03;25.10;96.80
46055;DHT22;31788;6.954;-71.872;2023-02-11T09:44:34;25.10;96.90
46055;DHT22;31788;6.954;-71.872;2023-02-11T09:47:44;25.10;96.80
46055;DHT22;31788;6.954;-71.872;2023-02-11T09:49:51;25.10;96.80
46055;DHT22;31788;6.954;-71.872;2023-02-11T09:54:54;25.10;96.50
46055;DHT22;31788;6.954;-71.872;2023-02-11T09:57:21;25.10;96.20
46055;DHT22;31788;6.954;-71.872;2023-02-11T09:59:48;25.20;96.40
46055;DHT22;31788;6.954;-71.872;2023-02-11T10:02:17;25.20;96.40
46055;DHT22;31788;6.954;-71.872;2023-02-11T10:04:59;25.20;96.20
46055;DHT22;31788;6.954;-71.872;2023-02-11T10:07:32;25.20;96.10
46055;DHT22;31788;6.954;-71.872;2023-02-11T10:10:06;25.20;96.00
46055;DHT22;31788;6.954;-71.872;2023-02-11T10:12:42;25.20;96.20
46055;DHT22;31788;6.954;-71.872;2023-02-11T10:23:48;25.20;96.00
46055;DHT22;31788;6.954;-71.872;2023-02-11T10:26:16;25.30;96.00
46055;DHT22;31788;6.954;-71.872;2023-02-11T10:28:49;25.30;96.00
46055;DHT22;31788;6.954;-71.872;2023-02-11T10:31:21;25.30;96.10
46055;DHT22;31788;6.954;-71.872;2023-02-11T10:33:59;25.30;96.00
46055;DHT22;31788;6.954;-71.872;2023-02-11T10:36:30;25.30;96.00
46055;DHT22;31788;6.954;-71.872;2023-02-11T10:38:58;25.40;96.10
46055;DHT22;31788;6.954;-71.872;2023-02-11T10:41:35;25.30;96.00
46055;DHT22;31788;6.954;-71.872;2023-02-11T10:44:05;25.30;96.00
46055;DHT22;31788;6.954;-71.872;2023-02-11T10:46:32;25.30;96.40
46055;DHT22;31788;6.954;-71.872;2023-02-11T10:48:59;25.30;96.70
46055;DHT22;31788;6.954;-71.872;2023-02-11T10:51:26;25.30;96.60
46055;DHT22;31788;6.954;-71.872;2023-02-11T10:56:36;25.30;96.70
46055;DHT22;31788;6.954;-71.872;2023-02-11T11:01:52;25.20;97.00
46055;DHT22;31788;6.954;-71.872;2023-02-11T11:10:00;25.20;97.10
46055;DHT22;31788;6.954;-71.872;2023-02-11T11:17:28;25.10;97.10
46055;DHT22;31788;6.954;-71.872;2023-02-11T11:20:43;25.10;97.00
46055;DHT22;31788;6.954;-71.872;2023-02-11T11:22:41;25.20;97.10
46055;DHT22;31788;6.954;-71.872;2023-02-11T11:25:24;25.20;97.10
46055;DHT22;31788;6.954;-71.872;2023-02-11T11:27:52;25.20;96.90
46055;DHT22;31788;6.954;-71.872;2023-02-11T11:30:20;25.20;96.80
46055;DHT22;31788;6.954;-71.872;2023-02-11T11:32:47;25.20;97.00
46055;DHT22;31788;6.954;-71.872;2023-02-11T11:35:24;25.20;97.20
46055;DHT22;31788;6.954;-71.872;2023-02-11T11:37:51;25.20;97.20
46055;DHT22;31788;6.954;-71.872;2023-02-11T11:40:22;25.30;97.10
46055;DHT22;31788;6.954;-71.872;2023-02-11T11:45:28;25.20;97.40
46055;DHT22;31788;6.954;-71.872;2023-02-11T11:57:57;25.20;97.70
46055;DHT22;31788;6.954;-71.872;2023-02-11T12:00:34;25.20;97.70
46055;DHT22;31788;6.954;-71.872;2023-02-11T12:03:17;25.30;97.70
46055;DHT22;31788;6.954;-71.872;2023-02-11T12:05:54;25.20;97.70
46055;DHT22;31788;6.954;-71.872;2023-02-11T12:16:01;25.10;97.70
46055;DHT22;31788;6.954;-71.872;2023-02-11T12:24:05;25.10;98.10
46055;DHT22;31788;6.954;-71.872;2023-02-11T12:29:26;25.20;98.00
46055;DHT22;31788;6.954;-71.872;2023-02-11T12:32:02;25.20;98.20
46055;DHT22;31788;6.954;-71.872;2023-02-11T12:55:14;25.40;98.00
46055;DHT22;31788;6.954;-71.872;2023-02-11T12:57:43;25.50;98.10
46055;DHT22;31788;6.954;-71.872;2023-02-11T13:00:15;25.50;97.60
46055;DHT22;31788;6.954;-71.872;2023-02-11T13:02:58;25.50;97.50
46055;DHT22;31788;6.954;-71.872;2023-02-11T13:05:32;25.60;97.70
46055;DHT22;31788;6.954;-71.872;2023-02-11T13:08:03;25.60;97.40
46055;DHT22;31788;6.954;-71.872;2023-02-11T13:10:34;25.60;97.30
46055;DHT22;31788;6.954;-71.872;2023-02-11T13:13:10;25.70;97.00
46055;DHT22;31788;6.954;-71.872;2023-02-11T13:15:52;25.70;97.00
46055;DHT22;31788;6.954;-71.872;2023-02-11T13:18:22;25.70;96.60
46055;DHT22;31788;6.954;-71.872;2023-02-11T13:20:52;25.80;96.70
46055;DHT22;31788;6.954;-71.872;2023-02-11T13:23:25;25.80;96.70
46055;DHT22;31788;6.954;-71.872;2023-02-11T13:31:01;25.80;96.00
46055;DHT22;31788;6.954;-71.872;2023-02-11T13:33:31;25.80;96.00
46055;DHT22;31788;6.954;-71.872;2023-02-11T13:38:25;25.90;96.10
46055;DHT22;31788;6.954;-71.872;2023-02-11T13:41:05;25.90;96.10
46055;DHT22;31788;6.954;-71.872;2023-02-11T13:43:33;25.90;96.20
46055;DHT22;31788;6.954;-71.872;2023-02-11T13:46:01;25.90;96.50
46055;DHT22;31788;6.954;-71.872;2023-02-11T13:48:29;26.00;96.40
46055;DHT22;31788;6.954;-71.872;2023-02-11T13:50:59;26.00;96.10
46055;DHT22;31788;6.954;-71.872;2023-02-11T13:53:26;26.00;96.40
46055;DHT22;31788;6.954;-71.872;2023-02-11T13:56:03;26.00;96.30
46055;DHT22;31788;6.954;-71.872;2023-02-11T14:00:56;26.00;96.20
46055;DHT22;31788;6.954;-71.872;2023-02-11T14:09:08;26.00;96.50
46055;DHT22;31788;6.954;-71.872;2023-02-11T14:27:08;26.10;96.60
46055;DHT22;31788;6.954;-71.872;2023-02-11T14:29:39;26.00;97.00
46055;DHT22;31788;6.954;-71.872;2023-02-11T14:32:25;26.00;97.10
46055;DHT22;31788;6.954;-71.872;2023-02-11T14:42:56;26.00;97.70
46055;DHT22;31788;6.954;-71.872;2023-02-11T14:45:27;26.10;97.80
46055;DHT22;31788;6.954;-71.872;2023-02-11T14:50:57;26.10;97.70
46055;DHT22;31788;6.954;-71.872;2023-02-11T14:53:23;26.00;97.70
46055;DHT22;31788;6.954;-71.872;2023-02-11T14:55:51;26.00;97.70
46055;DHT22;31788;6.954;-71.872;2023-02-11T14:58:19;26.00;97.80
46055;DHT22;31788;6.954;-71.872;2023-02-11T15:00:49;26.00;97.80
46055;DHT22;31788;6.954;-71.872;2023-02-11T15:03:25;26.00;97.90
46055;DHT22;31788;6.954;-71.872;2023-02-11T15:05:55;26.00;97.90
46055;DHT22;31788;6.954;-71.872;2023-02-11T15:08:23;26.00;98.10
46055;DHT22;31788;6.954;-71.872;2023-02-11T15:10:50;26.00;98.30
46055;DHT22;31788;6.954;-71.872;2023-02-11T15:13:19;25.90;98.30
46055;DHT22;31788;6.954;-71.872;2023-02-11T15:15:47;25.90;98.70
46055;DHT22;31788;6.954;-71.872;2023-02-11T15:18:17;25.90;98.70
46055;DHT22;31788;6.954;-71.872;2023-02-11T15:20:47;25.90;99.00
46055;DHT22;31788;6.954;-71.872;2023-02-11T15:23:17;25.90;99.10
46055;DHT22;31788;6.954;-71.872;2023-02-11T15:25:45;25.90;99.10
46055;DHT22;31788;6.954;-71.872;2023-02-11T15:28:24;25.90;98.90
46055;DHT22;31788;6.954;-71.872;2023-02-11T15:30:58;25.90;98.90
46055;DHT22;31788;6.954;-71.872;2023-02-11T15:33:24;25.90;98.70
46055;DHT22;31788;6.954;-71.872;2023-02-11T15:35:50;25.90;98.60
46055;DHT22;31788;6.954;-71.872;2023-02-11T15:38:17;25.90;98.60
46055;DHT22;31788;6.954;-71.872;2023-02-11T15:43:48;25.90;99.10
46055;DHT22;31788;6.954;-71.872;2023-02-11T15:46:18;25.90;98.60
46055;DHT22;31788;6.954;-71.872;2023-02-11T15:48:49;25.90;98.60
46055;DHT22;31788;6.954;-71.872;2023-02-11T15:53:53;25.90;98.50
46055;DHT22;31788;6.954;-71.872;2023-02-11T15:58:49;25.80;98.30
46055;DHT22;31788;6.954;-71.872;2023-02-11T16:01:16;25.80;98.20
46055;DHT22;31788;6.954;-71.872;2023-02-11T16:03:42;25.80;98.20
46055;DHT22;31788;6.954;-71.872;2023-02-11T16:06:21;25.80;98.20
46055;DHT22;31788;6.954;-71.872;2023-02-11T16:08:55;25.80;98.30
46055;DHT22;31788;6.954;-71.872;2023-02-11T16:16:47;25.80;98.10
46055;DHT22;31788;6.954;-71.872;2023-02-11T16:19:19;25.80;98.20
46055;DHT22;31788;6.954;-71.872;2023-02-11T16:21:50;25.80;98.10
46055;DHT22;31788;6.954;-71.872;2023-02-11T16:24:17;25.80;98.10
46055;DHT22;31788;6.954;-71.872;2023-02-11T16:26:46;25.80;98.40
46055;DHT22;31788;6.954;-71.872;2023-02-11T16:29:14;25.80;98.20
46055;DHT22;31788;6.954;-71.872;2023-02-11T16:31:42;25.90;98.10
46055;DHT22;31788;6.954;-71.872;2023-02-11T16:34:19;25.90;98.00
46055;DHT22;31788;6.954;-71.872;2023-02-11T16:36:46;25.90;97.90
46055;DHT22;31788;6.954;-71.872;2023-02-11T16:39:12;25.90;98.00
46055;DHT22;31788;6.954;-71.872;2023-02-11T16:41:39;26.00;97.80
46055;DHT22;31788;6.954;-71.872;2023-02-11T16:44:05;26.10;97.70
46055;DHT22;31788;6.954;-71.872;2023-02-11T16:46:31;26.10;97.50
46055;DHT22;31788;6.954;-71.872;2023-02-11T16:48:58;26.10;97.40
46055;DHT22;31788;6.954;-71.872;2023-02-11T16:51:31;26.10;97.50
46055;DHT22;31788;6.954;-71.872;2023-02-11T16:53:57;26.20;97.50
46055;DHT22;31788;6.954;-71.872;2023-02-11T16:56:23;26.20;97.50
46055;DHT22;31788;6.954;-71.872;2023-02-11T16:58:52;26.20;97.30
46055;DHT22;31788;6.954;-71.872;2023-02-11T17:01:18;26.20;97.40
46055;DHT22;31788;6.954;-71.872;2023-02-11T17:03:44;26.30;97.40
46055;DHT22;31788;6.954;-71.872;2023-02-11T17:06:11;26.30;97.30
46055;DHT22;31788;6.954;-71.872;2023-02-11T17:08:38;26.40;97.40
46055;DHT22;31788;6.954;-71.872;2023-02-11T17:11:04;26.30;97.10
46055;DHT22;31788;6.954;-71.872;2023-02-11T17:13:31;26.40;97.10
46055;DHT22;31788;6.954;-71.872;2023-02-11T17:15:57;26.40;96.70
46055;DHT22;31788;6.954;-71.872;2023-02-11T17:18:23;26.50;96.90
46055;DHT22;31788;6.954;-71.872;2023-02-11T17:20:50;26.50;96.90
46055;DHT22;31788;6.954;-71.872;2023-02-11T17:23:16;26.60;96.80
46055;DHT22;31788;6.954;-71.872;2023-02-11T17:25:42;26.60;97.10
46055;DHT22;31788;6.954;-71.872;2023-02-11T17:28:08;26.70;97.20
46055;DHT22;31788;6.954;-71.872;2023-02-11T17:30:38;26.80;97.00
46055;DHT22;31788;6.954;-71.872;2023-02-11T17:33:05;26.80;97.00
46055;DHT22;31788;6.954;-71.872;2023-02-11T17:35:31;26.80;96.70
46055;DHT22;31788;6.954;-71.872;2023-02-11T17:37:57;26.80;96.70
46055;DHT22;31788;6.954;-71.872;2023-02-11T17:40:23;26.90;96.20
46055;DHT22;31788;6.954;-71.872;2023-02-11T17:42:49;27.00;96.20
46055;DHT22;31788;6.954;-71.872;2023-02-11T17:45:16;27.00;95.30
46055;DHT22;31788;6.954;-71.872;2023-02-11T17:47:42;27.10;95.80
46055;DHT22;31788;6.954;-71.872;2023-02-11T17:50:08;27.10;95.60
46055;DHT22;31788;6.954;-71.872;2023-02-11T17:52:34;27.10;95.70
46055;DHT22;31788;6.954;-71.872;2023-02-11T17:55:02;27.20;95.70
46055;DHT22;31788;6.954;-71.872;2023-02-11T17:57:29;27.20;95.70
46055;DHT22;31788;6.954;-71.872;2023-02-11T17:59:55;27.30;95.60
46055;DHT22;31788;6.954;-71.872;2023-02-11T18:02:22;27.30;95.60
46055;DHT22;31788;6.954;-71.872;2023-02-11T18:04:48;27.30;95.50
46055;DHT22;31788;6.954;-71.872;2023-02-11T18:07:15;27.30;95.60
46055;DHT22;31788;6.954;-71.872;2023-02-11T18:09:42;27.40;95.40
46055;DHT22;31788;6.954;-71.872;2023-02-11T18:12:09;27.40;95.10
46055;DHT22;31788;6.954;-71.872;2023-02-11T18:14:39;27.40;95.10